sensor_id;sensor_type;location;lat;lon;timestamp;P1;durP1;ratioP1;P2;durP2;ratioP2
39968;SDS011;25648;47.808;19.004;2022-12-26T00:01:53;34.53;;;20.92;;
39968;SDS011;25648;47.808;19.004;2022-12-26T00:04:19;34.35;;;21.10;;
39968;SDS011;25648;47.808;19.004;2022-12-26T00:06:45;40.28;;;23.75;;
39968;SDS011;25648;47.808;19.004;2022-12-26T00:09:11;36.15;;;22.67;;
39968;SDS011;25648;47.808;19.004;2022-12-26T00:11:36;39.00;;;23.23;;
39968;SDS011;25648;47.808;19.004;2022-12-26T00:14:04;41.83;;;24.30;;
39968;SDS011;25648;47.808;19.004;2022-12-26T00:16:34;41.45;;;23.80;;
39968;SDS011;25648;47.808;19.004;2022-12-26T00:19:00;42.13;;;24.98;;
39968;SDS011;25648;47.808;19.004;2022-12-26T00:21:27;42.15;;;24.00;;
39968;SDS011;25648;47.808;19.004;2022-12-26T00:23:54;39.63;;;23.20;;
39968;SDS011;25648;47.808;19.004;2022-12-26T00:26:22;43.13;;;23.63;;
39968;SDS011;25648;47.808;19.004;2022-12-26T00:28:49;41.85;;;23.05;;
39968;SDS011;25648;47.808;19.004;2022-12-26T00:31:16;45.63;;;26.42;;
39968;SDS011;25648;47.808;19.004;2022-12-26T00:33:46;39.08;;;24.15;;
39968;SDS011;25648;47.808;19.004;2022-12-26T00:36:14;40.13;;;24.58;;
39968;SDS011;25648;47.808;19.004;2022-12-26T00:38:51;41.88;;;23.85;;
39968;SDS011;25648;47.808;19.004;2022-12-26T00:41:17;41.13;;;24.92;;
39968;SDS011;25648;47.808;19.004;2022-12-26T00:43:44;46.92;;;24.77;;
39968;SDS011;25648;47.808;19.004;2022-12-26T00:46:10;42.15;;;23.40;;
39968;SDS011;25648;47.808;19.004;2022-12-26T00:48:36;44.67;;;25.35;;
39968;SDS011;25648;47.808;19.004;2022-12-26T00:51:02;43.30;;;25.17;;
39968;SDS011;25648;47.808;19.004;2022-12-26T00:53:29;44.78;;;25.02;;
39968;SDS011;25648;47.808;19.004;2022-12-26T00:55:55;42.80;;;24.38;;
39968;SDS011;25648;47.808;19.004;2022-12-26T00:58:21;46.40;;;26.08;;
39968;SDS011;25648;47.808;19.004;2022-12-26T01:00:47;45.60;;;25.83;;
39968;SDS011;25648;47.808;19.004;2022-12-26T01:03:14;45.95;;;25.63;;
39968;SDS011;25648;47.808;19.004;2022-12-26T01:05:40;45.83;;;26.25;;
39968;SDS011;25648;47.808;19.004;2022-12-26T01:08:11;52.33;;;28.30;;
39968;SDS011;25648;47.808;19.004;2022-12-26T01:10:44;48.95;;;27.55;;
39968;SDS011;25648;47.808;19.004;2022-12-26T01:13:11;45.78;;;26.40;;
39968;SDS011;25648;47.808;19.004;2022-12-26T01:15:37;51.47;;;27.15;;
39968;SDS011;25648;47.808;19.004;2022-12-26T01:18:03;46.00;;;26.52;;
39968;SDS011;25648;47.808;19.004;2022-12-26T01:20:29;46.67;;;26.80;;
39968;SDS011;25648;47.808;19.004;2022-12-26T01:22:55;48.63;;;26.10;;
39968;SDS011;25648;47.808;19.004;2022-12-26T01:25:21;46.30;;;25.65;;
39968;SDS011;25648;47.808;19.004;2022-12-26T01:27:47;51.25;;;26.23;;
39968;SDS011;25648;47.808;19.004;2022-12-26T01:30:14;49.15;;;26.77;;
39968;SDS011;25648;47.808;19.004;2022-12-26T01:32:40;43.85;;;25.58;;
39968;SDS011;25648;47.808;19.004;2022-12-26T01:35:05;49.47;;;26.05;;
39968;SDS011;25648;47.808;19.004;2022-12-26T01:37:31;47.45;;;26.45;;
39968;SDS011;25648;47.808;19.004;2022-12-26T01:39:57;49.60;;;27.58;;
39968;SDS011;25648;47.808;19.004;2022-12-26T01:42:24;49.40;;;26.42;;
39968;SDS011;25648;47.808;19.004;2022-12-26T01:44:58;46.80;;;26.67;;
39968;SDS011;25648;47.808;19.004;2022-12-26T01:50:06;50.20;;;27.05;;
39968;SDS011;25648;47.808;19.004;2022-12-26T01:52:58;53.05;;;26.83;;
39968;SDS011;25648;47.808;19.004;2022-12-26T01:55:29;48.15;;;27.17;;
39968;SDS011;25648;47.808;19.004;2022-12-26T01:57:58;52.42;;;26.65;;
39968;SDS011;25648;47.808;19.004;2022-12-26T02:00:30;45.95;;;25.15;;
39968;SDS011;25648;47.808;19.004;2022-12-26T02:02:56;47.25;;;25.95;;
39968;SDS011;25648;47.808;19.004;2022-12-26T02:05:40;48.80;;;24.85;;
39968;SDS011;25648;47.808;19.004;2022-12-26T02:08:09;47.55;;;25.60;;
39968;SDS011;25648;47.808;19.004;2022-12-26T02:10:41;48.65;;;26.10;;
39968;SDS011;25648;47.808;19.004;2022-12-26T02:13:14;51.50;;;27.00;;
39968;SDS011;25648;47.808;19.004;2022-12-26T02:15:41;43.97;;;25.10;;
39968;SDS011;25648;47.808;19.004;2022-12-26T02:18:06;46.83;;;25.25;;
39968;SDS011;25648;47.808;19.004;2022-12-26T02:20:36;49.95;;;25.92;;
39968;SDS011;25648;47.808;19.004;2022-12-26T02:23:26;45.42;;;24.42;;
39968;SDS011;25648;47.808;19.004;2022-12-26T02:31:00;44.70;;;25.45;;
39968;SDS011;25648;47.808;19.004;2022-12-26T02:34:08;52.92;;;27.40;;
39968;SDS011;25648;47.808;19.004;2022-12-26T02:54:14;45.28;;;24.60;;
39968;SDS011;25648;47.808;19.004;2022-12-26T02:57:07;48.67;;;25.88;;
39968;SDS011;25648;47.808;19.004;2022-12-26T03:00:17;44.97;;;23.33;;
39968;SDS011;25648;47.808;19.004;2022-12-26T03:03:09;43.00;;;23.10;;
39968;SDS011;25648;47.808;19.004;2022-12-26T03:08:55;52.90;;;25.08;;
39968;SDS011;25648;47.808;19.004;2022-12-26T03:11:47;47.35;;;25.45;;
39968;SDS011;25648;47.808;19.004;2022-12-26T03:14:36;43.87;;;24.53;;
39968;SDS011;25648;47.808;19.004;2022-12-26T03:17:10;45.78;;;23.75;;
39968;SDS011;25648;47.808;19.004;2022-12-26T03:19:44;50.78;;;25.58;;
39968;SDS011;25648;47.808;19.004;2022-12-26T03:25:09;47.83;;;25.13;;
39968;SDS011;25648;47.808;19.004;2022-12-26T03:27:55;48.00;;;24.20;;
39968;SDS011;25648;47.808;19.004;2022-12-26T03:30:21;42.85;;;25.05;;
39968;SDS011;25648;47.808;19.004;2022-12-26T03:33:05;49.70;;;24.90;;
39968;SDS011;25648;47.808;19.004;2022-12-26T03:35:51;43.45;;;24.20;;
39968;SDS011;25648;47.808;19.004;2022-12-26T03:38:17;50.15;;;25.02;;
39968;SDS011;25648;47.808;19.004;2022-12-26T03:40:54;47.25;;;25.00;;
39968;SDS011;25648;47.808;19.004;2022-12-26T03:44:05;47.95;;;24.25;;
39968;SDS011;25648;47.808;19.004;2022-12-26T03:47:12;45.47;;;23.27;;
39968;SDS011;25648;47.808;19.004;2022-12-26T03:50:06;48.65;;;24.50;;
39968;SDS011;25648;47.808;19.004;2022-12-26T03:53:13;45.42;;;24.02;;
39968;SDS011;25648;47.808;19.004;2022-12-26T03:56:09;52.03;;;26.20;;
39968;SDS011;25648;47.808;19.004;2022-12-26T03:59:13;50.55;;;25.98;;
39968;SDS011;25648;47.808;19.004;2022-12-26T04:02:04;51.53;;;27.20;;
39968;SDS011;25648;47.808;19.004;2022-12-26T04:04:51;51.35;;;25.98;;
39968;SDS011;25648;47.808;19.004;2022-12-26T04:07:39;51.65;;;26.65;;
39968;SDS011;25648;47.808;19.004;2022-12-26T04:10:30;50.65;;;26.33;;
39968;SDS011;25648;47.808;19.004;2022-12-26T04:13:28;52.17;;;25.85;;
39968;SDS011;25648;47.808;19.004;2022-12-26T04:16:37;44.40;;;24.77;;
39968;SDS011;25648;47.808;19.004;2022-12-26T04:27:48;57.88;;;27.58;;
39968;SDS011;25648;47.808;19.004;2022-12-26T04:30:33;52.60;;;26.25;;
39968;SDS011;25648;47.808;19.004;2022-12-26T04:33:31;56.15;;;27.35;;
39968;SDS011;25648;47.808;19.004;2022-12-26T04:36:48;54.75;;;27.02;;
39968;SDS011;25648;47.808;19.004;2022-12-26T04:39:39;53.80;;;26.02;;
39968;SDS011;25648;47.808;19.004;2022-12-26T04:42:27;54.55;;;26.75;;
39968;SDS011;25648;47.808;19.004;2022-12-26T04:45:14;55.30;;;26.80;;
39968;SDS011;25648;47.808;19.004;2022-12-26T04:47:41;57.20;;;27.98;;
39968;SDS011;25648;47.808;19.004;2022-12-26T04:50:26;51.15;;;26.20;;
39968;SDS011;25648;47.808;19.004;2022-12-26T04:52:52;60.65;;;28.35;;
39968;SDS011;25648;47.808;19.004;2022-12-26T04:55:30;58.65;;;28.55;;
39968;SDS011;25648;47.808;19.004;2022-12-26T04:57:59;56.90;;;27.63;;
39968;SDS011;25648;47.808;19.004;2022-12-26T05:00:25;62.58;;;30.73;;
39968;SDS011;25648;47.808;19.004;2022-12-26T05:02:52;58.97;;;27.98;;
39968;SDS011;25648;47.808;19.004;2022-12-26T05:05:41;56.60;;;28.20;;
39968;SDS011;25648;47.808;19.004;2022-12-26T05:08:32;62.10;;;28.10;;
39968;SDS011;25648;47.808;19.004;2022-12-26T05:11:22;59.13;;;26.42;;
39968;SDS011;25648;47.808;19.004;2022-12-26T05:13:50;59.38;;;26.83;;
39968;SDS011;25648;47.808;19.004;2022-12-26T05:16:20;59.90;;;28.17;;
39968;SDS011;25648;47.808;19.004;2022-12-26T05:19:05;58.83;;;27.73;;
39968;SDS011;25648;47.808;19.004;2022-12-26T05:21:51;67.00;;;29.02;;
39968;SDS011;25648;47.808;19.004;2022-12-26T05:24:37;66.57;;;29.40;;
39968;SDS011;25648;47.808;19.004;2022-12-26T05:27:23;69.78;;;27.77;;
39968;SDS011;25648;47.808;19.004;2022-12-26T05:30:09;63.15;;;28.08;;
39968;SDS011;25648;47.808;19.004;2022-12-26T05:32:35;68.20;;;29.45;;
39968;SDS011;25648;47.808;19.004;2022-12-26T05:35:19;67.78;;;29.80;;
39968;SDS011;25648;47.808;19.004;2022-12-26T05:37:45;65.13;;;29.65;;
39968;SDS011;25648;47.808;19.004;2022-12-26T05:40:11;85.88;;;33.63;;
39968;SDS011;25648;47.808;19.004;2022-12-26T05:42:36;73.32;;;31.90;;
39968;SDS011;25648;47.808;19.004;2022-12-26T05:45:03;75.85;;;32.60;;
39968;SDS011;25648;47.808;19.004;2022-12-26T05:47:29;91.43;;;37.10;;
39968;SDS011;25648;47.808;19.004;2022-12-26T05:49:55;75.28;;;32.13;;
39968;SDS011;25648;47.808;19.004;2022-12-26T05:52:20;76.95;;;31.35;;
39968;SDS011;25648;47.808;19.004;2022-12-26T05:54:46;74.85;;;31.85;;
39968;SDS011;25648;47.808;19.004;2022-12-26T05:57:11;75.75;;;32.33;;
39968;SDS011;25648;47.808;19.004;2022-12-26T05:59:37;74.80;;;32.08;;
39968;SDS011;25648;47.808;19.004;2022-12-26T06:02:03;70.95;;;32.17;;
39968;SDS011;25648;47.808;19.004;2022-12-26T06:04:28;94.50;;;34.28;;
39968;SDS011;25648;47.808;19.004;2022-12-26T06:06:54;71.45;;;30.70;;
39968;SDS011;25648;47.808;19.004;2022-12-26T06:09:23;96.53;;;37.15;;
39968;SDS011;25648;47.808;19.004;2022-12-26T06:11:50;86.70;;;36.88;;
39968;SDS011;25648;47.808;19.004;2022-12-26T06:14:15;81.13;;;35.97;;
39968;SDS011;25648;47.808;19.004;2022-12-26T06:16:41;81.78;;;38.05;;
39968;SDS011;25648;47.808;19.004;2022-12-26T06:19:07;83.28;;;38.28;;
39968;SDS011;25648;47.808;19.004;2022-12-26T06:21:32;68.55;;;32.30;;
39968;SDS011;25648;47.808;19.004;2022-12-26T06:23:58;80.80;;;35.53;;
39968;SDS011;25648;47.808;19.004;2022-12-26T06:26:24;85.03;;;34.92;;
39968;SDS011;25648;47.808;19.004;2022-12-26T06:28:50;82.05;;;33.45;;
39968;SDS011;25648;47.808;19.004;2022-12-26T06:31:17;78.53;;;33.38;;
39968;SDS011;25648;47.808;19.004;2022-12-26T06:33:45;70.60;;;33.40;;
39968;SDS011;25648;47.808;19.004;2022-12-26T06:36:17;68.47;;;30.17;;
39968;SDS011;25648;47.808;19.004;2022-12-26T06:38:45;67.38;;;31.05;;
39968;SDS011;25648;47.808;19.004;2022-12-26T06:41:12;63.88;;;29.83;;
39968;SDS011;25648;47.808;19.004;2022-12-26T06:43:39;84.40;;;30.65;;
39968;SDS011;25648;47.808;19.004;2022-12-26T06:46:06;74.63;;;31.42;;
39968;SDS011;25648;47.808;19.004;2022-12-26T06:48:33;73.72;;;31.42;;
39968;SDS011;25648;47.808;19.004;2022-12-26T06:51:08;82.53;;;33.13;;
39968;SDS011;25648;47.808;19.004;2022-12-26T06:53:41;68.18;;;30.77;;
39968;SDS011;25648;47.808;19.004;2022-12-26T06:56:12;71.45;;;30.17;;
39968;SDS011;25648;47.808;19.004;2022-12-26T06:58:42;79.82;;;31.30;;
39968;SDS011;25648;47.808;19.004;2022-12-26T07:01:10;84.90;;;32.45;;
39968;SDS011;25648;47.808;19.004;2022-12-26T07:03:40;87.25;;;35.83;;
39968;SDS011;25648;47.808;19.004;2022-12-26T07:06:11;235.40;;;93.07;;
39968;SDS011;25648;47.808;19.004;2022-12-26T07:08:45;126.18;;;48.72;;
39968;SDS011;25648;47.808;19.004;2022-12-26T07:11:14;93.10;;;35.55;;
39968;SDS011;25648;47.808;19.004;2022-12-26T07:13:42;125.68;;;62.92;;
39968;SDS011;25648;47.808;19.004;2022-12-26T07:16:08;155.52;;;71.60;;
39968;SDS011;25648;47.808;19.004;2022-12-26T07:18:34;135.25;;;53.97;;
39968;SDS011;25648;47.808;19.004;2022-12-26T07:21:03;85.22;;;34.53;;
39968;SDS011;25648;47.808;19.004;2022-12-26T07:23:33;77.22;;;33.97;;
39968;SDS011;25648;47.808;19.004;2022-12-26T07:25:59;87.10;;;36.20;;
39968;SDS011;25648;47.808;19.004;2022-12-26T07:28:25;121.78;;;53.53;;
39968;SDS011;25648;47.808;19.004;2022-12-26T07:30:51;94.50;;;37.05;;
39968;SDS011;25648;47.808;19.004;2022-12-26T07:33:17;101.60;;;41.10;;
39968;SDS011;25648;47.808;19.004;2022-12-26T07:35:43;78.90;;;34.33;;
39968;SDS011;25648;47.808;19.004;2022-12-26T07:38:09;83.88;;;31.80;;
39968;SDS011;25648;47.808;19.004;2022-12-26T07:40:35;85.47;;;34.30;;
39968;SDS011;25648;47.808;19.004;2022-12-26T07:43:01;101.18;;;37.15;;
39968;SDS011;25648;47.808;19.004;2022-12-26T07:45:27;93.45;;;37.40;;
39968;SDS011;25648;47.808;19.004;2022-12-26T07:47:53;88.53;;;35.85;;
39968;SDS011;25648;47.808;19.004;2022-12-26T07:50:20;82.18;;;34.00;;
39968;SDS011;25648;47.808;19.004;2022-12-26T07:52:47;85.63;;;33.53;;
39968;SDS011;25648;47.808;19.004;2022-12-26T07:55:12;71.70;;;30.58;;
39968;SDS011;25648;47.808;19.004;2022-12-26T07:57:38;69.55;;;30.00;;
39968;SDS011;25648;47.808;19.004;2022-12-26T08:00:04;66.90;;;30.50;;
39968;SDS011;25648;47.808;19.004;2022-12-26T08:02:30;88.75;;;35.75;;
39968;SDS011;25648;47.808;19.004;2022-12-26T08:04:56;79.35;;;35.22;;
39968;SDS011;25648;47.808;19.004;2022-12-26T08:07:22;95.85;;;42.00;;
39968;SDS011;25648;47.808;19.004;2022-12-26T08:09:47;72.97;;;34.72;;
39968;SDS011;25648;47.808;19.004;2022-12-26T08:12:13;86.10;;;36.05;;
39968;SDS011;25648;47.808;19.004;2022-12-26T08:14:39;83.10;;;36.58;;
39968;SDS011;25648;47.808;19.004;2022-12-26T08:17:05;87.38;;;38.25;;
39968;SDS011;25648;47.808;19.004;2022-12-26T08:19:34;82.97;;;39.40;;
39968;SDS011;25648;47.808;19.004;2022-12-26T08:22:00;101.70;;;45.28;;
39968;SDS011;25648;47.808;19.004;2022-12-26T08:24:25;81.60;;;41.33;;
39968;SDS011;25648;47.808;19.004;2022-12-26T08:26:51;74.80;;;30.70;;
39968;SDS011;25648;47.808;19.004;2022-12-26T08:29:17;78.00;;;33.60;;
39968;SDS011;25648;47.808;19.004;2022-12-26T08:31:42;87.60;;;34.30;;
39968;SDS011;25648;47.808;19.004;2022-12-26T08:34:08;87.85;;;33.92;;
39968;SDS011;25648;47.808;19.004;2022-12-26T08:36:34;77.18;;;31.13;;
39968;SDS011;25648;47.808;19.004;2022-12-26T08:39:00;80.82;;;32.63;;
39968;SDS011;25648;47.808;19.004;2022-12-26T08:41:29;75.05;;;30.58;;
39968;SDS011;25648;47.808;19.004;2022-12-26T08:43:55;68.35;;;29.48;;
39968;SDS011;25648;47.808;19.004;2022-12-26T08:46:20;74.03;;;32.13;;
39968;SDS011;25648;47.808;19.004;2022-12-26T08:48:46;73.38;;;30.42;;
39968;SDS011;25648;47.808;19.004;2022-12-26T08:51:14;70.65;;;30.25;;
39968;SDS011;25648;47.808;19.004;2022-12-26T08:53:42;72.18;;;29.70;;
39968;SDS011;25648;47.808;19.004;2022-12-26T08:56:11;75.47;;;33.28;;
39968;SDS011;25648;47.808;19.004;2022-12-26T08:58:39;70.63;;;29.50;;
39968;SDS011;25648;47.808;19.004;2022-12-26T09:01:12;85.20;;;33.65;;
39968;SDS011;25648;47.808;19.004;2022-12-26T09:03:40;85.72;;;34.83;;
39968;SDS011;25648;47.808;19.004;2022-12-26T09:06:06;88.45;;;34.38;;
39968;SDS011;25648;47.808;19.004;2022-12-26T09:08:33;74.93;;;32.15;;
39968;SDS011;25648;47.808;19.004;2022-12-26T09:11:07;80.00;;;33.08;;
39968;SDS011;25648;47.808;19.004;2022-12-26T09:13:38;87.60;;;33.10;;
39968;SDS011;25648;47.808;19.004;2022-12-26T09:16:06;69.22;;;30.88;;
39968;SDS011;25648;47.808;19.004;2022-12-26T09:18:33;72.68;;;30.27;;
39968;SDS011;25648;47.808;19.004;2022-12-26T09:21:02;69.32;;;31.23;;
39968;SDS011;25648;47.808;19.004;2022-12-26T09:26:01;77.35;;;31.70;;
39968;SDS011;25648;47.808;19.004;2022-12-26T09:28:39;92.28;;;36.47;;
39968;SDS011;25648;47.808;19.004;2022-12-26T09:31:06;74.70;;;31.85;;
39968;SDS011;25648;47.808;19.004;2022-12-26T09:33:43;77.03;;;32.25;;
39968;SDS011;25648;47.808;19.004;2022-12-26T09:36:12;71.75;;;30.05;;
39968;SDS011;25648;47.808;19.004;2022-12-26T09:38:39;67.60;;;28.60;;
39968;SDS011;25648;47.808;19.004;2022-12-26T09:46:39;67.45;;;27.30;;
39968;SDS011;25648;47.808;19.004;2022-12-26T09:56:51;64.95;;;28.30;;
39968;SDS011;25648;47.808;19.004;2022-12-26T09:59:18;74.47;;;34.45;;
39968;SDS011;25648;47.808;19.004;2022-12-26T10:01:48;68.75;;;35.08;;
39968;SDS011;25648;47.808;19.004;2022-12-26T10:04:24;57.67;;;28.52;;
39968;SDS011;25648;47.808;19.004;2022-12-26T10:06:56;50.97;;;24.33;;
39968;SDS011;25648;47.808;19.004;2022-12-26T10:14:33;65.75;;;27.52;;
39968;SDS011;25648;47.808;19.004;2022-12-26T10:22:51;54.63;;;25.42;;
39968;SDS011;25648;47.808;19.004;2022-12-26T10:25:24;40.80;;;20.52;;
39968;SDS011;25648;47.808;19.004;2022-12-26T10:34:02;62.42;;;29.42;;
39968;SDS011;25648;47.808;19.004;2022-12-26T10:36:39;63.28;;;28.73;;
39968;SDS011;25648;47.808;19.004;2022-12-26T10:39:55;62.67;;;28.77;;
39968;SDS011;25648;47.808;19.004;2022-12-26T10:44:45;62.47;;;26.55;;
39968;SDS011;25648;47.808;19.004;2022-12-26T10:47:13;55.65;;;26.25;;
39968;SDS011;25648;47.808;19.004;2022-12-26T10:49:50;58.58;;;29.02;;
39968;SDS011;25648;47.808;19.004;2022-12-26T10:52:16;52.95;;;25.95;;
39968;SDS011;25648;47.808;19.004;2022-12-26T10:54:45;59.25;;;28.75;;
39968;SDS011;25648;47.808;19.004;2022-12-26T10:57:15;48.40;;;24.35;;
39968;SDS011;25648;47.808;19.004;2022-12-26T10:59:46;55.17;;;25.30;;
39968;SDS011;25648;47.808;19.004;2022-12-26T11:07:28;44.53;;;22.17;;
39968;SDS011;25648;47.808;19.004;2022-12-26T11:09:55;56.22;;;24.60;;
39968;SDS011;25648;47.808;19.004;2022-12-26T11:15:33;45.03;;;21.80;;
39968;SDS011;25648;47.808;19.004;2022-12-26T11:18:15;49.60;;;22.48;;
39968;SDS011;25648;47.808;19.004;2022-12-26T11:20:47;50.28;;;22.85;;
39968;SDS011;25648;47.808;19.004;2022-12-26T11:23:24;47.63;;;21.30;;
39968;SDS011;25648;47.808;19.004;2022-12-26T11:25:58;45.30;;;20.27;;
39968;SDS011;25648;47.808;19.004;2022-12-26T11:28:34;49.22;;;21.55;;
39968;SDS011;25648;47.808;19.004;2022-12-26T11:31:03;44.58;;;21.52;;
39968;SDS011;25648;47.808;19.004;2022-12-26T11:36:24;47.47;;;21.85;;
39968;SDS011;25648;47.808;19.004;2022-12-26T11:38:59;46.97;;;22.23;;
39968;SDS011;25648;47.808;19.004;2022-12-26T11:41:38;48.13;;;23.88;;
39968;SDS011;25648;47.808;19.004;2022-12-26T11:49:49;55.58;;;25.95;;
39968;SDS011;25648;47.808;19.004;2022-12-26T11:58:05;60.85;;;26.38;;
39968;SDS011;25648;47.808;19.004;2022-12-26T12:00:43;46.95;;;22.70;;
39968;SDS011;25648;47.808;19.004;2022-12-26T12:22:14;43.45;;;23.17;;
39968;SDS011;25648;47.808;19.004;2022-12-26T12:25:21;56.08;;;23.75;;
39968;SDS011;25648;47.808;19.004;2022-12-26T12:28:41;41.38;;;20.90;;
39968;SDS011;25648;47.808;19.004;2022-12-26T12:30:46;45.88;;;22.65;;
39968;SDS011;25648;47.808;19.004;2022-12-26T12:33:47;42.10;;;22.52;;
39968;SDS011;25648;47.808;19.004;2022-12-26T12:36:28;40.53;;;22.05;;
39968;SDS011;25648;47.808;19.004;2022-12-26T12:42:03;45.15;;;21.42;;
39968;SDS011;25648;47.808;19.004;2022-12-26T12:55:45;50.83;;;25.60;;
39968;SDS011;25648;47.808;19.004;2022-12-26T12:58:55;45.90;;;23.58;;
39968;SDS011;25648;47.808;19.004;2022-12-26T13:01:34;58.22;;;25.70;;
39968;SDS011;25648;47.808;19.004;2022-12-26T13:04:19;60.70;;;29.13;;
39968;SDS011;25648;47.808;19.004;2022-12-26T13:06:58;56.80;;;26.45;;
39968;SDS011;25648;47.808;19.004;2022-12-26T13:09:48;60.65;;;27.92;;
39968;SDS011;25648;47.808;19.004;2022-12-26T13:12:22;55.92;;;28.63;;
39968;SDS011;25648;47.808;19.004;2022-12-26T13:14:53;58.63;;;26.52;;
39968;SDS011;25648;47.808;19.004;2022-12-26T13:22:52;56.10;;;28.88;;
39968;SDS011;25648;47.808;19.004;2022-12-26T13:25:46;64.72;;;31.40;;
39968;SDS011;25648;47.808;19.004;2022-12-26T13:28:29;59.28;;;28.50;;
39968;SDS011;25648;47.808;19.004;2022-12-26T13:31:00;61.30;;;28.80;;
39968;SDS011;25648;47.808;19.004;2022-12-26T13:33:26;61.25;;;28.83;;
39968;SDS011;25648;47.808;19.004;2022-12-26T13:35:54;55.97;;;27.83;;
39968;SDS011;25648;47.808;19.004;2022-12-26T13:38:24;54.03;;;28.25;;
39968;SDS011;25648;47.808;19.004;2022-12-26T13:41:14;84.18;;;40.00;;
39968;SDS011;25648;47.808;19.004;2022-12-26T13:54:35;58.95;;;28.10;;
39968;SDS011;25648;47.808;19.004;2022-12-26T14:06:26;75.95;;;33.92;;
39968;SDS011;25648;47.808;19.004;2022-12-26T14:28:31;81.65;;;37.67;;
39968;SDS011;25648;47.808;19.004;2022-12-26T14:31:19;169.52;;;79.40;;
39968;SDS011;25648;47.808;19.004;2022-12-26T14:50:45;105.68;;;51.75;;
39968;SDS011;25648;47.808;19.004;2022-12-26T14:56:00;79.53;;;37.85;;
39968;SDS011;25648;47.808;19.004;2022-12-26T14:58:36;76.68;;;33.78;;
39968;SDS011;25648;47.808;19.004;2022-12-26T15:16:55;145.68;;;67.10;;
39968;SDS011;25648;47.808;19.004;2022-12-26T15:27:45;122.22;;;52.38;;
39968;SDS011;25648;47.808;19.004;2022-12-26T15:33:13;74.90;;;30.70;;
39968;SDS011;25648;47.808;19.004;2022-12-26T15:38:31;74.97;;;30.38;;
39968;SDS011;25648;47.808;19.004;2022-12-26T15:52:47;60.88;;;28.08;;
39968;SDS011;25648;47.808;19.004;2022-12-26T15:55:32;62.58;;;29.75;;
39968;SDS011;25648;47.808;19.004;2022-12-26T16:00:54;80.65;;;37.20;;
39968;SDS011;25648;47.808;19.004;2022-12-26T16:12:17;68.72;;;31.58;;
39968;SDS011;25648;47.808;19.004;2022-12-26T16:14:43;70.72;;;33.53;;
39968;SDS011;25648;47.808;19.004;2022-12-26T16:19:38;102.25;;;43.72;;
39968;SDS011;25648;47.808;19.004;2022-12-26T16:22:06;82.60;;;35.90;;
39968;SDS011;25648;47.808;19.004;2022-12-26T16:24:57;74.03;;;33.25;;
39968;SDS011;25648;47.808;19.004;2022-12-26T16:27:23;72.70;;;33.88;;
39968;SDS011;25648;47.808;19.004;2022-12-26T16:29:51;74.47;;;34.20;;
39968;SDS011;25648;47.808;19.004;2022-12-26T16:32:26;78.97;;;35.83;;
39968;SDS011;25648;47.808;19.004;2022-12-26T16:34:56;81.07;;;35.00;;
39968;SDS011;25648;47.808;19.004;2022-12-26T16:37:23;69.90;;;32.50;;
39968;SDS011;25648;47.808;19.004;2022-12-26T16:40:03;72.70;;;32.50;;
39968;SDS011;25648;47.808;19.004;2022-12-26T16:42:30;83.63;;;36.53;;
39968;SDS011;25648;47.808;19.004;2022-12-26T16:44:56;81.50;;;39.20;;
39968;SDS011;25648;47.808;19.004;2022-12-26T16:47:23;104.72;;;58.47;;
39968;SDS011;25648;47.808;19.004;2022-12-26T16:49:49;99.13;;;52.53;;
39968;SDS011;25648;47.808;19.004;2022-12-26T16:52:36;88.88;;;43.28;;
39968;SDS011;25648;47.808;19.004;2022-12-26T16:57:58;90.75;;;41.20;;
39968;SDS011;25648;47.808;19.004;2022-12-26T17:00:35;117.18;;;54.00;;
39968;SDS011;25648;47.808;19.004;2022-12-26T17:03:01;106.18;;;51.65;;
39968;SDS011;25648;47.808;19.004;2022-12-26T17:05:34;106.90;;;45.53;;
39968;SDS011;25648;47.808;19.004;2022-12-26T17:08:06;94.43;;;41.35;;
39968;SDS011;25648;47.808;19.004;2022-12-26T17:10:36;88.13;;;39.60;;
39968;SDS011;25648;47.808;19.004;2022-12-26T17:13:03;90.10;;;40.22;;
39968;SDS011;25648;47.808;19.004;2022-12-26T17:15:35;82.38;;;37.00;;
39968;SDS011;25648;47.808;19.004;2022-12-26T17:20:53;94.30;;;38.65;;
39968;SDS011;25648;47.808;19.004;2022-12-26T17:23:35;90.57;;;36.65;;
39968;SDS011;25648;47.808;19.004;2022-12-26T17:26:15;87.95;;;37.10;;
39968;SDS011;25648;47.808;19.004;2022-12-26T17:28:41;86.88;;;35.03;;
39968;SDS011;25648;47.808;19.004;2022-12-26T17:31:12;89.60;;;39.63;;
39968;SDS011;25648;47.808;19.004;2022-12-26T17:33:43;92.90;;;39.97;;
39968;SDS011;25648;47.808;19.004;2022-12-26T17:36:11;91.00;;;43.05;;
39968;SDS011;25648;47.808;19.004;2022-12-26T17:38:40;103.93;;;41.80;;
39968;SDS011;25648;47.808;19.004;2022-12-26T17:41:12;109.47;;;46.78;;
39968;SDS011;25648;47.808;19.004;2022-12-26T17:43:40;89.32;;;40.05;;
39968;SDS011;25648;47.808;19.004;2022-12-26T17:46:08;99.00;;;37.92;;
39968;SDS011;25648;47.808;19.004;2022-12-26T17:51:04;78.65;;;32.85;;
39968;SDS011;25648;47.808;19.004;2022-12-26T17:53:32;88.35;;;34.78;;
39968;SDS011;25648;47.808;19.004;2022-12-26T17:56:13;81.63;;;32.70;;
39968;SDS011;25648;47.808;19.004;2022-12-26T17:58:41;90.32;;;40.40;;
39968;SDS011;25648;47.808;19.004;2022-12-26T18:01:07;86.38;;;35.80;;
39968;SDS011;25648;47.808;19.004;2022-12-26T18:03:34;94.32;;;37.05;;
39968;SDS011;25648;47.808;19.004;2022-12-26T18:06:00;115.07;;;43.97;;
39968;SDS011;25648;47.808;19.004;2022-12-26T18:08:28;94.95;;;38.53;;
39968;SDS011;25648;47.808;19.004;2022-12-26T18:11:03;96.35;;;39.20;;
39968;SDS011;25648;47.808;19.004;2022-12-26T18:13:31;82.82;;;34.67;;
39968;SDS011;25648;47.808;19.004;2022-12-26T18:15:57;128.63;;;59.83;;
39968;SDS011;25648;47.808;19.004;2022-12-26T18:18:31;95.38;;;43.67;;
39968;SDS011;25648;47.808;19.004;2022-12-26T18:21:00;96.40;;;37.80;;
39968;SDS011;25648;47.808;19.004;2022-12-26T18:23:26;95.18;;;38.13;;
39968;SDS011;25648;47.808;19.004;2022-12-26T18:25:52;107.55;;;38.17;;
39968;SDS011;25648;47.808;19.004;2022-12-26T18:28:20;79.13;;;34.13;;
39968;SDS011;25648;47.808;19.004;2022-12-26T18:30:45;102.03;;;45.38;;
39968;SDS011;25648;47.808;19.004;2022-12-26T18:33:11;99.13;;;38.88;;
39968;SDS011;25648;47.808;19.004;2022-12-26T18:35:38;85.93;;;34.40;;
39968;SDS011;25648;47.808;19.004;2022-12-26T18:38:05;96.72;;;33.53;;
39968;SDS011;25648;47.808;19.004;2022-12-26T18:40:35;94.00;;;34.53;;
39968;SDS011;25648;47.808;19.004;2022-12-26T18:43:07;151.38;;;56.83;;
39968;SDS011;25648;47.808;19.004;2022-12-26T18:45:33;126.90;;;53.15;;
39968;SDS011;25648;47.808;19.004;2022-12-26T18:48:01;84.45;;;31.95;;
39968;SDS011;25648;47.808;19.004;2022-12-26T18:50:27;96.45;;;35.08;;
39968;SDS011;25648;47.808;19.004;2022-12-26T18:52:55;81.50;;;33.78;;
39968;SDS011;25648;47.808;19.004;2022-12-26T18:55:21;95.93;;;33.05;;
39968;SDS011;25648;47.808;19.004;2022-12-26T18:57:48;108.95;;;35.17;;
39968;SDS011;25648;47.808;19.004;2022-12-26T19:00:14;88.53;;;33.08;;